Terminal Aerodrome Forecast
Issued by NWS

Current Version | Previous Version | Text Only | Print | Product List | Glossary On
Versions: 1 2 3 4 5 6 7 8 9 10 11 12 13 14 15 16 17 18 19 20 21 22 23 24 25 26 27 28 29 30 31 32
785
FTAK31 PAFA 151139
TAFABT
TAF
PABT 151139Z 1512/1612 VRB02KT 1/2SM FZFG OVC004
     FM152000 VRB03KT 4SM -SN BR SCT004 BKN015 OVC040
     FM160100 02006KT P6SM VCSH SCT015 BKN040
     FM160700 02006KT 5SM -SN BR BKN015 BKN040=

USA.gov is the U.S. government's official web portal to all federal, state and local government web resources and services.